sensor_id;sensor_type;location;lat;lon;timestamp;pressure;altitude;pressure_sealevel;temperature;humidity
73566;BME280;61846;52.970;-3.168;2024-03-23T00:55:25;100426.07;;;4.81;53.27
73566;BME280;61846;52.970;-3.168;2024-03-23T00:57:51;100425.69;;;5.52;51.37
73566;BME280;61846;52.970;-3.168;2024-03-23T01:00:16;100419.47;;;5.99;50.22
73566;BME280;61846;52.970;-3.168;2024-03-23T01:02:42;100422.94;;;5.30;51.83
73566;BME280;61846;52.970;-3.168;2024-03-23T01:05:08;100418.50;;;5.07;52.88
73566;BME280;61846;52.970;-3.168;2024-03-23T01:07:33;100418.18;;;4.55;53.78
73566;BME280;61846;52.970;-3.168;2024-03-23T01:09:59;100422.03;;;3.96;56.03
73566;BME280;61846;52.970;-3.168;2024-03-23T01:12:25;100415.01;;;4.19;57.43
73566;BME280;61846;52.970;-3.168;2024-03-23T01:14:50;100407.32;;;5.17;53.00
73566;BME280;61846;52.970;-3.168;2024-03-23T01:17:16;100416.99;;;4.47;55.30
73566;BME280;61846;52.970;-3.168;2024-03-23T01:19:41;100419.07;;;4.18;57.52
73566;BME280;61846;52.970;-3.168;2024-03-23T01:22:07;100419.79;;;3.87;58.70
73566;BME280;61846;52.970;-3.168;2024-03-23T01:24:32;100425.74;;;4.41;57.15
73566;BME280;61846;52.970;-3.168;2024-03-23T01:26:58;100420.71;;;4.31;57.36
73566;BME280;61846;52.970;-3.168;2024-03-23T01:29:24;100416.35;;;4.76;56.71
73566;BME280;61846;52.970;-3.168;2024-03-23T01:31:50;100413.63;;;4.95;55.12
73566;BME280;61846;52.970;-3.168;2024-03-23T01:34:15;100412.48;;;5.56;54.34
73566;BME280;61846;52.970;-3.168;2024-03-23T01:36:41;100412.75;;;5.14;54.21
73566;BME280;61846;52.970;-3.168;2024-03-23T01:39:07;100408.98;;;5.80;52.80
73566;BME280;61846;52.970;-3.168;2024-03-23T01:41:32;100413.97;;;3.84;57.20
73566;BME280;61846;52.970;-3.168;2024-03-23T01:44:04;100416.58;;;5.16;53.16
73566;BME280;61846;52.970;-3.168;2024-03-23T01:46:24;100409.02;;;5.34;53.25
73566;BME280;61846;52.970;-3.168;2024-03-23T01:48:50;100410.72;;;4.98;55.08
73566;BME280;61846;52.970;-3.168;2024-03-23T01:51:15;100396.11;;;4.88;55.35
73566;BME280;61846;52.970;-3.168;2024-03-23T01:53:41;100399.73;;;4.23;56.34
73566;BME280;61846;52.970;-3.168;2024-03-23T01:56:06;100405.69;;;3.69;59.48
73566;BME280;61846;52.970;-3.168;2024-03-23T01:58:32;100412.10;;;3.93;60.18
73566;BME280;61846;52.970;-3.168;2024-03-23T02:00:57;100403.30;;;3.97;60.12
73566;BME280;61846;52.970;-3.168;2024-03-23T02:03:24;100414.18;;;3.68;60.85
73566;BME280;61846;52.970;-3.168;2024-03-23T02:05:49;100403.34;;;4.12;60.55
73566;BME280;61846;52.970;-3.168;2024-03-23T02:08:14;100401.02;;;3.62;61.52
73566;BME280;61846;52.970;-3.168;2024-03-23T02:10:40;100393.94;;;4.66;59.63
73566;BME280;61846;52.970;-3.168;2024-03-23T02:13:05;100391.85;;;4.49;59.85
73566;BME280;61846;52.970;-3.168;2024-03-23T02:15:31;100389.46;;;4.21;60.04
73566;BME280;61846;52.970;-3.168;2024-03-23T02:17:57;100388.12;;;4.03;59.97
73566;BME280;61846;52.970;-3.168;2024-03-23T02:20:23;100383.01;;;4.54;59.32
73566;BME280;61846;52.970;-3.168;2024-03-23T02:22:51;100386.70;;;4.58;57.78
73566;BME280;61846;52.970;-3.168;2024-03-23T02:25:14;100378.58;;;3.83;59.26
73566;BME280;61846;52.970;-3.168;2024-03-23T02:27:39;100377.81;;;4.35;59.04
73566;BME280;61846;52.970;-3.168;2024-03-23T02:30:07;100367.65;;;4.42;58.60
73566;BME280;61846;52.970;-3.168;2024-03-23T02:32:31;100373.66;;;4.26;58.16
73566;BME280;61846;52.970;-3.168;2024-03-23T02:34:56;100372.44;;;4.40;58.42
73566;BME280;61846;52.970;-3.168;2024-03-23T02:37:22;100372.25;;;4.44;57.46
73566;BME280;61846;52.970;-3.168;2024-03-23T02:39:48;100359.63;;;5.03;57.31
73566;BME280;61846;52.970;-3.168;2024-03-23T02:42:14;100363.04;;;4.72;56.62
73566;BME280;61846;52.970;-3.168;2024-03-23T02:44:39;100346.19;;;5.61;54.65
73566;BME280;61846;52.970;-3.168;2024-03-23T02:47:06;100349.69;;;5.75;54.72
73566;BME280;61846;52.970;-3.168;2024-03-23T02:49:30;100344.31;;;4.81;57.44
73566;BME280;61846;52.970;-3.168;2024-03-23T02:51:56;100344.30;;;5.52;54.89
73566;BME280;61846;52.970;-3.168;2024-03-23T02:54:22;100336.68;;;6.06;53.13
73566;BME280;61846;52.970;-3.168;2024-03-23T02:56:47;100331.74;;;5.07;56.41
73566;BME280;61846;52.970;-3.168;2024-03-23T02:59:12;100327.91;;;6.00;53.52
73566;BME280;61846;52.970;-3.168;2024-03-23T03:01:38;100328.44;;;7.28;51.27
73566;BME280;61846;52.970;-3.168;2024-03-23T03:04:04;100322.15;;;7.62;49.44
73566;BME280;61846;52.970;-3.168;2024-03-23T03:06:31;100321.88;;;6.48;50.93
73566;BME280;61846;52.970;-3.168;2024-03-23T03:08:55;100308.81;;;7.75;48.29
73566;BME280;61846;52.970;-3.168;2024-03-23T03:11:21;100302.50;;;7.84;48.17
73566;BME280;61846;52.970;-3.168;2024-03-23T03:13:47;100300.40;;;7.47;48.65
73566;BME280;61846;52.970;-3.168;2024-03-23T03:16:12;100293.98;;;7.15;48.55
73566;BME280;61846;52.970;-3.168;2024-03-23T03:18:38;100291.87;;;7.66;48.31
73566;BME280;61846;52.970;-3.168;2024-03-23T03:21:04;100293.32;;;6.78;48.39
73566;BME280;61846;52.970;-3.168;2024-03-23T03:23:29;100288.58;;;6.95;49.06
73566;BME280;61846;52.970;-3.168;2024-03-23T03:25:55;100287.78;;;6.41;49.15
73566;BME280;61846;52.970;-3.168;2024-03-23T03:28:20;100286.26;;;6.90;48.32
73566;BME280;61846;52.970;-3.168;2024-03-23T03:30:46;100289.15;;;7.54;47.68
73566;BME280;61846;52.970;-3.168;2024-03-23T03:33:11;100299.06;;;6.73;48.89
73566;BME280;61846;52.970;-3.168;2024-03-23T03:35:37;100294.70;;;5.57;52.17
73566;BME280;61846;52.970;-3.168;2024-03-23T03:38:02;100301.69;;;5.51;52.09
73566;BME280;61846;52.970;-3.168;2024-03-23T03:40:28;100308.21;;;7.00;50.98
73566;BME280;61846;52.970;-3.168;2024-03-23T03:42:54;100309.29;;;5.95;53.65
73566;BME280;61846;52.970;-3.168;2024-03-23T03:45:19;100302.61;;;5.80;53.48
73566;BME280;61846;52.970;-3.168;2024-03-23T03:47:45;100293.58;;;6.12;54.88
73566;BME280;61846;52.970;-3.168;2024-03-23T03:50:11;100287.83;;;6.07;55.03
73566;BME280;61846;52.970;-3.168;2024-03-23T03:52:36;100290.12;;;6.72;55.17
73566;BME280;61846;52.970;-3.168;2024-03-23T03:55:03;100287.66;;;7.13;52.52
73566;BME280;61846;52.970;-3.168;2024-03-23T03:57:28;100297.01;;;7.43;51.51
73566;BME280;61846;52.970;-3.168;2024-03-23T03:59:53;100297.63;;;7.17;51.03
73566;BME280;61846;52.970;-3.168;2024-03-23T04:02:19;100299.26;;;6.86;51.04
73566;BME280;61846;52.970;-3.168;2024-03-23T04:04:45;100286.22;;;7.39;50.12
73566;BME280;61846;52.970;-3.168;2024-03-23T04:07:11;100278.38;;;7.71;49.42
73566;BME280;61846;52.970;-3.168;2024-03-23T04:09:36;100272.69;;;8.05;49.15
73566;BME280;61846;52.970;-3.168;2024-03-23T04:12:02;100271.78;;;7.89;48.10
73566;BME280;61846;52.970;-3.168;2024-03-23T04:14:27;100274.73;;;6.62;49.93
73566;BME280;61846;52.970;-3.168;2024-03-23T04:16:53;100277.21;;;8.14;48.86
73566;BME280;61846;52.970;-3.168;2024-03-23T04:19:19;100276.05;;;6.71;50.66
73566;BME280;61846;52.970;-3.168;2024-03-23T04:21:44;100271.13;;;7.01;49.92
73566;BME280;61846;52.970;-3.168;2024-03-23T04:24:10;100272.40;;;7.57;48.92
73566;BME280;61846;52.970;-3.168;2024-03-23T04:26:41;100268.74;;;6.74;50.96
73566;BME280;61846;52.970;-3.168;2024-03-23T04:29:01;100269.97;;;7.18;50.49
73566;BME280;61846;52.970;-3.168;2024-03-23T04:31:27;100269.70;;;7.98;48.58
73566;BME280;61846;52.970;-3.168;2024-03-23T04:33:53;100272.92;;;7.15;49.18
73566;BME280;61846;52.970;-3.168;2024-03-23T04:36:18;100272.27;;;6.57;51.72
73566;BME280;61846;52.970;-3.168;2024-03-23T04:38:46;100275.28;;;6.30;52.33
73566;BME280;61846;52.970;-3.168;2024-03-23T04:41:10;100265.46;;;6.87;51.24
73566;BME280;61846;52.970;-3.168;2024-03-23T04:43:35;100267.59;;;6.56;51.60
73566;BME280;61846;52.970;-3.168;2024-03-23T04:46:01;100266.05;;;6.06;53.90
73566;BME280;61846;52.970;-3.168;2024-03-23T04:48:26;100262.99;;;6.97;52.17
73566;BME280;61846;52.970;-3.168;2024-03-23T04:50:55;100270.04;;;6.73;51.78
73566;BME280;61846;52.970;-3.168;2024-03-23T04:53:17;100253.88;;;5.35;55.10
73566;BME280;61846;52.970;-3.168;2024-03-23T04:55:43;100246.94;;;6.01;54.95
73566;BME280;61846;52.970;-3.168;2024-03-23T04:58:09;100239.45;;;6.97;51.86
73566;BME280;61846;52.970;-3.168;2024-03-23T05:00:34;100242.54;;;7.01;51.14
73566;BME280;61846;52.970;-3.168;2024-03-23T05:03:00;100238.23;;;5.30;54.45
73566;BME280;61846;52.970;-3.168;2024-03-23T05:05:26;100236.84;;;5.64;55.10
73566;BME280;61846;52.970;-3.168;2024-03-23T05:07:51;100242.33;;;5.62;53.61
73566;BME280;61846;52.970;-3.168;2024-03-23T05:10:17;100237.57;;;5.83;53.21
73566;BME280;61846;52.970;-3.168;2024-03-23T05:12:43;100235.83;;;6.54;52.50
73566;BME280;61846;52.970;-3.168;2024-03-23T05:15:08;100230.29;;;6.17;52.64
73566;BME280;61846;52.970;-3.168;2024-03-23T05:17:34;100238.85;;;4.22;57.88
73566;BME280;61846;52.970;-3.168;2024-03-23T05:20:00;100237.14;;;4.56;57.37
73566;BME280;61846;52.970;-3.168;2024-03-23T05:22:26;100231.42;;;4.80;56.35
73566;BME280;61846;52.970;-3.168;2024-03-23T05:24:51;100230.80;;;4.41;56.80
73566;BME280;61846;52.970;-3.168;2024-03-23T05:27:17;100225.73;;;4.25;57.56
73566;BME280;61846;52.970;-3.168;2024-03-23T05:29:43;100216.54;;;5.79;53.90
73566;BME280;61846;52.970;-3.168;2024-03-23T05:32:08;100201.19;;;5.27;55.43
73566;BME280;61846;52.970;-3.168;2024-03-23T05:34:34;100186.46;;;5.29;54.88
73566;BME280;61846;52.970;-3.168;2024-03-23T05:36:59;100180.67;;;5.45;54.14
73566;BME280;61846;52.970;-3.168;2024-03-23T05:39:25;100182.93;;;6.43;52.35
73566;BME280;61846;52.970;-3.168;2024-03-23T05:41:51;100177.68;;;6.01;51.56
73566;BME280;61846;52.970;-3.168;2024-03-23T05:44:16;100177.04;;;6.68;51.28
73566;BME280;61846;52.970;-3.168;2024-03-23T05:46:42;100172.11;;;5.74;51.92
73566;BME280;61846;52.970;-3.168;2024-03-23T05:49:08;100162.19;;;5.67;52.47
73566;BME280;61846;52.970;-3.168;2024-03-23T05:51:33;100157.78;;;5.87;52.82
73566;BME280;61846;52.970;-3.168;2024-03-23T05:53:59;100164.45;;;5.60;52.54
73566;BME280;61846;52.970;-3.168;2024-03-23T05:56:24;100174.86;;;4.41;56.40
73566;BME280;61846;52.970;-3.168;2024-03-23T05:58:50;100174.33;;;4.20;56.48
73566;BME280;61846;52.970;-3.168;2024-03-23T06:01:16;100170.03;;;5.05;54.68
73566;BME280;61846;52.970;-3.168;2024-03-23T06:03:42;100169.81;;;4.41;55.18
73566;BME280;61846;52.970;-3.168;2024-03-23T06:06:07;100183.09;;;3.12;59.62
73566;BME280;61846;52.970;-3.168;2024-03-23T06:08:33;100171.29;;;3.67;58.55
73566;BME280;61846;52.970;-3.168;2024-03-23T06:10:59;100158.61;;;4.43;57.02
73566;BME280;61846;52.970;-3.168;2024-03-23T06:13:24;100161.31;;;4.34;56.80
73566;BME280;61846;52.970;-3.168;2024-03-23T06:15:50;100161.44;;;4.01;57.51
73566;BME280;61846;52.970;-3.168;2024-03-23T06:18:16;100159.00;;;3.96;56.98
73566;BME280;61846;52.970;-3.168;2024-03-23T06:20:42;100170.96;;;3.36;59.52
73566;BME280;61846;52.970;-3.168;2024-03-23T06:23:07;100165.12;;;3.47;60.15
73566;BME280;61846;52.970;-3.168;2024-03-23T06:25:33;100160.19;;;3.13;60.20
73566;BME280;61846;52.970;-3.168;2024-03-23T06:27:58;100163.58;;;3.29;59.21
73566;BME280;61846;52.970;-3.168;2024-03-23T06:30:24;100159.90;;;4.75;56.67
73566;BME280;61846;52.970;-3.168;2024-03-23T06:32:50;100162.41;;;5.05;56.25
73566;BME280;61846;52.970;-3.168;2024-03-23T06:35:15;100158.79;;;4.35;57.24
73566;BME280;61846;52.970;-3.168;2024-03-23T06:37:41;100154.94;;;4.77;56.62
73566;BME280;61846;52.970;-3.168;2024-03-23T06:40:08;100156.75;;;4.99;57.17
73566;BME280;61846;52.970;-3.168;2024-03-23T06:42:32;100156.21;;;4.16;59.87
73566;BME280;61846;52.970;-3.168;2024-03-23T06:44:58;100151.06;;;4.15;60.25
73566;BME280;61846;52.970;-3.168;2024-03-23T06:47:24;100154.80;;;4.39;60.58
73566;BME280;61846;52.970;-3.168;2024-03-23T06:49:50;100144.57;;;4.27;60.51
73566;BME280;61846;52.970;-3.168;2024-03-23T06:52:15;100145.82;;;4.72;60.74
73566;BME280;61846;52.970;-3.168;2024-03-23T06:54:40;100145.89;;;4.87;60.16
73566;BME280;61846;52.970;-3.168;2024-03-23T06:57:06;100137.31;;;5.30;58.09
73566;BME280;61846;52.970;-3.168;2024-03-23T06:59:32;100135.01;;;4.65;58.63
73566;BME280;61846;52.970;-3.168;2024-03-23T07:01:58;100131.56;;;4.70;59.34
73566;BME280;61846;52.970;-3.168;2024-03-23T07:04:23;100129.95;;;5.39;57.94
73566;BME280;61846;52.970;-3.168;2024-03-23T07:06:50;100128.73;;;6.18;54.92
73566;BME280;61846;52.970;-3.168;2024-03-23T07:09:15;100117.74;;;6.70;52.89
73566;BME280;61846;52.970;-3.168;2024-03-23T07:11:41;100112.40;;;6.22;54.24
73566;BME280;61846;52.970;-3.168;2024-03-23T07:14:06;100115.73;;;7.15;51.57
73566;BME280;61846;52.970;-3.168;2024-03-23T07:16:32;100121.87;;;7.24;51.47
73566;BME280;61846;52.970;-3.168;2024-03-23T07:18:58;100124.57;;;7.11;51.41
73566;BME280;61846;52.970;-3.168;2024-03-23T07:21:23;100133.49;;;6.07;52.21
73566;BME280;61846;52.970;-3.168;2024-03-23T07:23:49;100130.29;;;5.46;56.79
73566;BME280;61846;52.970;-3.168;2024-03-23T07:26:14;100135.09;;;5.41;56.11
73566;BME280;61846;52.970;-3.168;2024-03-23T07:28:40;100133.44;;;5.70;57.20
73566;BME280;61846;52.970;-3.168;2024-03-23T07:31:07;100134.56;;;5.23;57.29
73566;BME280;61846;52.970;-3.168;2024-03-23T07:33:31;100130.89;;;5.65;58.30
73566;BME280;61846;52.970;-3.168;2024-03-23T07:35:56;100136.63;;;6.95;55.57
73566;BME280;61846;52.970;-3.168;2024-03-23T07:38:23;100129.54;;;6.66;54.18
73566;BME280;61846;52.970;-3.168;2024-03-23T07:40:48;100137.00;;;6.69;53.87
73566;BME280;61846;52.970;-3.168;2024-03-23T07:43:13;100141.02;;;6.62;55.18
73566;BME280;61846;52.970;-3.168;2024-03-23T07:45:39;100133.29;;;7.44;53.04
73566;BME280;61846;52.970;-3.168;2024-03-23T07:48:05;100136.13;;;7.62;52.28
73566;BME280;61846;52.970;-3.168;2024-03-23T07:50:30;100127.35;;;8.09;51.20
73566;BME280;61846;52.970;-3.168;2024-03-23T07:52:56;100130.79;;;8.53;50.00
73566;BME280;61846;52.970;-3.168;2024-03-23T07:55:21;100124.35;;;8.47;49.89
73566;BME280;61846;52.970;-3.168;2024-03-23T07:57:47;100123.60;;;8.54;49.61
73566;BME280;61846;52.970;-3.168;2024-03-23T08:00:13;100119.79;;;8.19;50.50
73566;BME280;61846;52.970;-3.168;2024-03-23T08:02:38;100124.53;;;8.21;52.26
73566;BME280;61846;52.970;-3.168;2024-03-23T08:05:04;100125.10;;;7.62;51.41
73566;BME280;61846;52.970;-3.168;2024-03-23T08:07:29;100117.71;;;8.01;50.86
73566;BME280;61846;52.970;-3.168;2024-03-23T08:09:54;100118.73;;;7.52;50.88
73566;BME280;61846;52.970;-3.168;2024-03-23T08:12:20;100121.77;;;8.60;50.64
73566;BME280;61846;52.970;-3.168;2024-03-23T08:14:45;100117.67;;;8.86;50.19
73566;BME280;61846;52.970;-3.168;2024-03-23T08:17:11;100115.27;;;8.52;48.92
73566;BME280;61846;52.970;-3.168;2024-03-23T08:19:36;100112.55;;;8.79;48.49
73566;BME280;61846;52.970;-3.168;2024-03-23T08:22:02;100110.10;;;9.05;47.40
73566;BME280;61846;52.970;-3.168;2024-03-23T08:24:27;100118.06;;;9.01;47.77
73566;BME280;61846;52.970;-3.168;2024-03-23T08:26:54;100108.87;;;8.85;48.27
73566;BME280;61846;52.970;-3.168;2024-03-23T08:29:18;100117.82;;;8.63;49.14
73566;BME280;61846;52.970;-3.168;2024-03-23T08:31:43;100124.40;;;7.69;50.52
73566;BME280;61846;52.970;-3.168;2024-03-23T08:34:09;100124.27;;;7.84;50.36
73566;BME280;61846;52.970;-3.168;2024-03-23T08:36:34;100120.05;;;7.82;50.32
73566;BME280;61846;52.970;-3.168;2024-03-23T08:39:00;100121.31;;;7.75;51.50
73566;BME280;61846;52.970;-3.168;2024-03-23T08:41:25;100116.67;;;7.98;51.41
73566;BME280;61846;52.970;-3.168;2024-03-23T08:43:51;100117.57;;;5.61;56.96
73566;BME280;61846;52.970;-3.168;2024-03-23T08:46:17;100111.61;;;6.37;55.72
73566;BME280;61846;52.970;-3.168;2024-03-23T08:48:44;100114.15;;;6.05;55.11
73566;BME280;61846;52.970;-3.168;2024-03-23T08:51:09;100114.84;;;5.98;58.28
73566;BME280;61846;52.970;-3.168;2024-03-23T08:53:35;100112.22;;;7.33;55.45
73566;BME280;61846;52.970;-3.168;2024-03-23T08:55:59;100108.79;;;7.90;55.07
73566;BME280;61846;52.970;-3.168;2024-03-23T08:58:25;100105.13;;;7.99;52.80
73566;BME280;61846;52.970;-3.168;2024-03-23T09:00:50;100104.63;;;8.27;52.96
73566;BME280;61846;52.970;-3.168;2024-03-23T09:03:15;100104.90;;;7.75;53.40
73566;BME280;61846;52.970;-3.168;2024-03-23T09:05:41;100098.68;;;8.12;52.74
73566;BME280;61846;52.970;-3.168;2024-03-23T09:08:07;100099.80;;;7.29;54.13
73566;BME280;61846;52.970;-3.168;2024-03-23T09:10:37;100097.71;;;6.99;54.36
73566;BME280;61846;52.970;-3.168;2024-03-23T09:12:58;100107.75;;;6.30;57.32
73566;BME280;61846;52.970;-3.168;2024-03-23T09:15:24;100107.38;;;6.95;55.49
73566;BME280;61846;52.970;-3.168;2024-03-23T09:17:50;100106.33;;;6.63;53.93
73566;BME280;61846;52.970;-3.168;2024-03-23T09:20:15;100103.01;;;6.80;56.10
73566;BME280;61846;52.970;-3.168;2024-03-23T09:22:41;100100.35;;;6.75;56.01
73566;BME280;61846;52.970;-3.168;2024-03-23T09:25:07;100102.68;;;7.05;54.65
73566;BME280;61846;52.970;-3.168;2024-03-23T09:27:32;100106.82;;;7.05;55.84
73566;BME280;61846;52.970;-3.168;2024-03-23T09:29:58;100114.24;;;6.23;57.18
73566;BME280;61846;52.970;-3.168;2024-03-23T09:32:23;100121.04;;;6.13;57.64
73566;BME280;61846;52.970;-3.168;2024-03-23T09:34:50;100119.65;;;6.45;57.39
73566;BME280;61846;52.970;-3.168;2024-03-23T09:37:15;100124.58;;;6.40;57.94
73566;BME280;61846;52.970;-3.168;2024-03-23T09:39:41;100122.64;;;6.41;57.69
73566;BME280;61846;52.970;-3.168;2024-03-23T09:42:06;100121.18;;;6.55;56.65
73566;BME280;61846;52.970;-3.168;2024-03-23T09:44:32;100113.77;;;6.78;55.71
73566;BME280;61846;52.970;-3.168;2024-03-23T09:46:57;100105.41;;;7.54;56.39
73566;BME280;61846;52.970;-3.168;2024-03-23T09:49:23;100106.13;;;7.32;55.16
73566;BME280;61846;52.970;-3.168;2024-03-23T09:51:49;100097.95;;;7.65;57.51
73566;BME280;61846;52.970;-3.168;2024-03-23T09:54:14;100090.92;;;7.21;56.63
73566;BME280;61846;52.970;-3.168;2024-03-23T09:56:39;100082.02;;;8.22;54.67
73566;BME280;61846;52.970;-3.168;2024-03-23T09:59:06;100081.09;;;7.94;55.18
73566;BME280;61846;52.970;-3.168;2024-03-23T10:01:31;100075.90;;;8.02;54.04
73566;BME280;61846;52.970;-3.168;2024-03-23T10:03:56;100069.36;;;8.55;51.44
73566;BME280;61846;52.970;-3.168;2024-03-23T10:06:22;100065.67;;;8.84;51.32
73566;BME280;61846;52.970;-3.168;2024-03-23T10:08:47;100057.41;;;8.67;50.61
73566;BME280;61846;52.970;-3.168;2024-03-23T10:11:14;100063.79;;;8.20;52.14
73566;BME280;61846;52.970;-3.168;2024-03-23T10:13:41;100063.70;;;8.86;49.54
73566;BME280;61846;52.970;-3.168;2024-03-23T10:16:04;100058.32;;;8.12;48.69
73566;BME280;61846;52.970;-3.168;2024-03-23T10:18:30;100051.79;;;8.15;48.57
73566;BME280;61846;52.970;-3.168;2024-03-23T10:21:06;100054.90;;;7.82;50.50
73566;BME280;61846;52.970;-3.168;2024-03-23T10:23:23;100073.53;;;7.77;50.88
73566;BME280;61846;52.970;-3.168;2024-03-23T10:25:46;100073.42;;;6.58;51.22
73566;BME280;61846;52.970;-3.168;2024-03-23T10:28:12;100062.97;;;7.66;54.53
73566;BME280;61846;52.970;-3.168;2024-03-23T10:30:37;100056.23;;;8.30;50.87
73566;BME280;61846;52.970;-3.168;2024-03-23T10:33:09;100050.67;;;7.34;49.60
73566;BME280;61846;52.970;-3.168;2024-03-23T10:35:29;100046.20;;;7.72;49.27
73566;BME280;61846;52.970;-3.168;2024-03-23T10:37:55;100038.89;;;7.66;48.69
73566;BME280;61846;52.970;-3.168;2024-03-23T10:40:20;100044.99;;;8.73;48.64
73566;BME280;61846;52.970;-3.168;2024-03-23T10:42:46;100052.49;;;8.49;46.54
73566;BME280;61846;52.970;-3.168;2024-03-23T10:45:11;100056.06;;;8.69;46.09
73566;BME280;61846;52.970;-3.168;2024-03-23T10:47:37;100062.92;;;8.57;45.28
73566;BME280;61846;52.970;-3.168;2024-03-23T10:50:03;100054.68;;;8.53;46.86
73566;BME280;61846;52.970;-3.168;2024-03-23T10:52:28;100053.39;;;8.52;46.64
73566;BME280;61846;52.970;-3.168;2024-03-23T10:54:53;100059.79;;;7.92;47.34
73566;BME280;61846;52.970;-3.168;2024-03-23T10:57:23;100062.63;;;7.61;46.30
73566;BME280;61846;52.970;-3.168;2024-03-23T10:59:45;100068.45;;;7.55;47.71
73566;BME280;61846;52.970;-3.168;2024-03-23T11:02:18;100063.57;;;8.02;47.87
73566;BME280;61846;52.970;-3.168;2024-03-23T11:04:37;100065.27;;;8.00;48.11
73566;BME280;61846;52.970;-3.168;2024-03-23T11:07:02;100066.83;;;8.05;46.93
73566;BME280;61846;52.970;-3.168;2024-03-23T11:09:40;100068.10;;;8.54;46.27
73566;BME280;61846;52.970;-3.168;2024-03-23T11:11:52;100075.36;;;8.18;45.88
73566;BME280;61846;52.970;-3.168;2024-03-23T11:14:22;100088.83;;;7.69;47.58
73566;BME280;61846;52.970;-3.168;2024-03-23T11:16:43;100098.84;;;6.32;51.54
73566;BME280;61846;52.970;-3.168;2024-03-23T11:24:13;100074.18;;;6.69;51.30
73566;BME280;61846;52.970;-3.168;2024-03-23T11:26:26;100083.68;;;7.15;49.97
73566;BME280;61846;52.970;-3.168;2024-03-23T11:31:17;100070.81;;;6.54;52.66
73566;BME280;61846;52.970;-3.168;2024-03-23T11:33:42;100064.77;;;8.17;48.98
73566;BME280;61846;52.970;-3.168;2024-03-23T11:36:08;100058.70;;;8.35;45.86
73566;BME280;61846;52.970;-3.168;2024-03-23T11:38:36;100064.72;;;8.02;47.96
73566;BME280;61846;52.970;-3.168;2024-03-23T11:41:03;100076.71;;;7.76;47.54
73566;BME280;61846;52.970;-3.168;2024-03-23T11:43:25;100075.51;;;8.48;47.26
73566;BME280;61846;52.970;-3.168;2024-03-23T11:45:51;100093.30;;;7.47;48.94
73566;BME280;61846;52.970;-3.168;2024-03-23T11:48:18;100082.71;;;7.26;50.48
73566;BME280;61846;52.970;-3.168;2024-03-23T11:50:43;100088.73;;;6.87;51.67
73566;BME280;61846;52.970;-3.168;2024-03-23T11:53:12;100079.50;;;7.24;50.48
73566;BME280;61846;52.970;-3.168;2024-03-23T11:55:39;100073.17;;;7.40;50.93
73566;BME280;61846;52.970;-3.168;2024-03-23T11:57:58;100072.34;;;8.42;47.76
73566;BME280;61846;52.970;-3.168;2024-03-23T12:00:24;100058.64;;;8.89;47.42
73566;BME280;61846;52.970;-3.168;2024-03-23T12:02:50;100058.54;;;9.23;44.36
73566;BME280;61846;52.970;-3.168;2024-03-23T12:05:15;100055.81;;;9.47;43.02
73566;BME280;61846;52.970;-3.168;2024-03-23T12:07:40;100050.64;;;9.68;44.62
73566;BME280;61846;52.970;-3.168;2024-03-23T12:10:07;100049.14;;;9.63;43.95
73566;BME280;61846;52.970;-3.168;2024-03-23T12:12:31;100053.71;;;8.79;42.87
73566;BME280;61846;52.970;-3.168;2024-03-23T12:15:03;100058.63;;;9.79;42.32
73566;BME280;61846;52.970;-3.168;2024-03-23T12:17:22;100060.76;;;9.37;40.25
73566;BME280;61846;52.970;-3.168;2024-03-23T12:19:48;100053.58;;;8.75;40.20
73566;BME280;61846;52.970;-3.168;2024-03-23T12:22:13;100052.84;;;8.49;40.82
73566;BME280;61846;52.970;-3.168;2024-03-23T12:24:39;100056.42;;;7.80;41.79
73566;BME280;61846;52.970;-3.168;2024-03-23T12:27:05;100049.29;;;7.94;44.70
73566;BME280;61846;52.970;-3.168;2024-03-23T12:29:30;100058.66;;;8.14;45.25
73566;BME280;61846;52.970;-3.168;2024-03-23T12:31:55;100052.88;;;8.31;44.71
73566;BME280;61846;52.970;-3.168;2024-03-23T12:34:21;100044.59;;;8.26;42.48
73566;BME280;61846;52.970;-3.168;2024-03-23T12:36:47;100036.12;;;9.61;45.66
73566;BME280;61846;52.970;-3.168;2024-03-23T12:39:12;100034.32;;;9.29;41.73
73566;BME280;61846;52.970;-3.168;2024-03-23T12:41:38;100039.52;;;8.83;41.19
73566;BME280;61846;52.970;-3.168;2024-03-23T12:44:03;100039.78;;;7.80;41.97
73566;BME280;61846;52.970;-3.168;2024-03-23T12:46:29;100040.26;;;8.32;41.74
73566;BME280;61846;52.970;-3.168;2024-03-23T12:48:55;100035.56;;;8.51;41.00
73566;BME280;61846;52.970;-3.168;2024-03-23T12:51:20;100035.19;;;8.96;40.02
73566;BME280;61846;52.970;-3.168;2024-03-23T12:53:46;100031.56;;;9.12;38.45
73566;BME280;61846;52.970;-3.168;2024-03-23T12:56:12;100039.77;;;8.66;39.53
73566;BME280;61846;52.970;-3.168;2024-03-23T12:58:37;100029.53;;;8.64;38.35
73566;BME280;61846;52.970;-3.168;2024-03-23T13:01:03;100038.86;;;9.39;38.30
73566;BME280;61846;52.970;-3.168;2024-03-23T13:03:28;100027.78;;;9.64;38.93
73566;BME280;61846;52.970;-3.168;2024-03-23T13:05:53;100026.21;;;10.67;39.83
73566;BME280;61846;52.970;-3.168;2024-03-23T13:08:19;100034.52;;;10.50;37.04
73566;BME280;61846;52.970;-3.168;2024-03-23T13:10:44;100027.36;;;9.99;34.63
73566;BME280;61846;52.970;-3.168;2024-03-23T13:13:10;100037.92;;;10.23;36.42
73566;BME280;61846;52.970;-3.168;2024-03-23T13:15:36;100041.67;;;8.03;37.90
73566;BME280;61846;52.970;-3.168;2024-03-23T13:18:01;100036.86;;;8.41;37.34
73566;BME280;61846;52.970;-3.168;2024-03-23T13:20:27;100055.66;;;9.29;38.17
73566;BME280;61846;52.970;-3.168;2024-03-23T13:22:52;100043.77;;;8.79;39.50
73566;BME280;61846;52.970;-3.168;2024-03-23T13:25:18;100042.79;;;9.21;36.58
73566;BME280;61846;52.970;-3.168;2024-03-23T13:27:43;100039.78;;;8.77;38.00
73566;BME280;61846;52.970;-3.168;2024-03-23T13:30:09;100034.74;;;8.71;37.15
73566;BME280;61846;52.970;-3.168;2024-03-23T13:32:34;100043.80;;;9.11;37.46
73566;BME280;61846;52.970;-3.168;2024-03-23T13:34:59;100040.21;;;8.93;38.89
73566;BME280;61846;52.970;-3.168;2024-03-23T13:37:25;100042.40;;;9.71;38.49
73566;BME280;61846;52.970;-3.168;2024-03-23T13:39:50;100045.66;;;9.24;38.83
73566;BME280;61846;52.970;-3.168;2024-03-23T13:42:16;100042.62;;;9.42;36.96